CFTIW CYQU-CYPY
Flight info
| Callsign | CFTIW |
|---|---|
| Flight time | 4h 59m |
| Altitude | 13000 |
| Route | DCT |
| Aircraft | BE58/L-SDE3/1200 |
Departure
| Time | 2026-05-04 12:16 |
|---|---|
| Airport | Grande Prairie Airport (CYQU) |
Arrival
| Time | 2026-05-04 17:15 |
|---|---|
| Airport | Fort Chipewyan Airport (CYPY) |
| Time | Latitude | Longitude | Altitude | Speed | Heading |
|---|---|---|---|---|---|
| 2026-05-04 12:09 | 55.17989 | -118.87790 | 2196 ft | 0 kts | 108° |
| 2026-05-04 12:11 | 55.17990 | -118.87800 | 2196 ft | 2 kts | 108° |
| 2026-05-04 12:11 | 55.17994 | -118.87818 | 2196 ft | 0 kts | 108° |
| 2026-05-04 12:12 | 55.17992 | -118.87812 | 2196 ft | 4 kts | 136° |
| 2026-05-04 12:12 | 55.17936 | -118.87822 | 2196 ft | 10 kts | 192° |
| 2026-05-04 12:13 | 55.17866 | -118.87895 | 2195 ft | 18 kts | 226° |
| 2026-05-04 12:14 | 55.18406 | -118.89400 | 2196 ft | 18 kts | 316° |
| 2026-05-04 12:15 | 55.18451 | -118.89425 | 2197 ft | 2 kts | 90° |
| 2026-05-04 12:15 | 55.18443 | -118.89205 | 2198 ft | 41 kts | 90° |
| 2026-05-04 12:15 | 55.18450 | -118.88296 | 2236 ft | 103 kts | 89° |
| 2026-05-04 12:15 | 55.18492 | -118.86999 | 2726 ft | 107 kts | 79° |
| 2026-05-04 12:16 | 55.18800 | -118.85826 | 3407 ft | 111 kts | 54° |
| 2026-05-04 12:16 | 55.19420 | -118.84948 | 3958 ft | 117 kts | 33° |
| 2026-05-04 12:16 | 55.20137 | -118.84211 | 4555 ft | 117 kts | 32° |
| 2026-05-04 12:16 | 55.20786 | -118.83430 | 5147 ft | 112 kts | 39° |
| 2026-05-04 12:17 | 55.21369 | -118.82580 | 5746 ft | 105 kts | 36° |
| 2026-05-04 12:17 | 55.21938 | -118.81724 | 6259 ft | 108 kts | 43° |
| 2026-05-04 12:17 | 55.22459 | -118.80800 | 6761 ft | 107 kts | 41° |
| 2026-05-04 12:17 | 55.22976 | -118.79865 | 7249 ft | 106 kts | 41° |
| 2026-05-04 12:18 | 55.23482 | -118.78940 | 7738 ft | 105 kts | 40° |
| 2026-05-04 12:18 | 55.23982 | -118.78017 | 8200 ft | 104 kts | 40° |
| 2026-05-04 12:18 | 55.24479 | -118.77096 | 8652 ft | 104 kts | 39° |
| 2026-05-04 12:18 | 55.24972 | -118.76180 | 9109 ft | 103 kts | 38° |
| 2026-05-04 12:19 | 55.25463 | -118.75269 | 9559 ft | 102 kts | 38° |
| 2026-05-04 12:19 | 55.25952 | -118.74360 | 10012 ft | 102 kts | 37° |
| 2026-05-04 12:19 | 55.26437 | -118.73460 | 10394 ft | 102 kts | 36° |
| 2026-05-04 12:19 | 55.26929 | -118.72544 | 10764 ft | 104 kts | 36° |
| 2026-05-04 12:20 | 55.27425 | -118.71621 | 11131 ft | 105 kts | 35° |
| 2026-05-04 12:20 | 55.27930 | -118.70683 | 11490 ft | 106 kts | 35° |
| 2026-05-04 12:20 | 55.28438 | -118.69736 | 11853 ft | 107 kts | 34° |
| 2026-05-04 12:20 | 55.28954 | -118.68776 | 12201 ft | 109 kts | 33° |
| 2026-05-04 12:21 | 55.29474 | -118.67805 | 12555 ft | 110 kts | 33° |
| 2026-05-04 12:21 | 55.30000 | -118.66825 | 12902 ft | 111 kts | 32° |
| 2026-05-04 12:21 | 55.30537 | -118.65826 | 13183 ft | 119 kts | 32° |
| 2026-05-04 12:21 | 55.31161 | -118.64669 | 13195 ft | 141 kts | 35° |
| 2026-05-04 12:22 | 55.31857 | -118.63351 | 13198 ft | 153 kts | 36° |
| 2026-05-04 12:22 | 55.32095 | -118.62901 | 13199 ft | 156 kts | 36° |
| 2026-05-04 12:22 | 55.32687 | -118.61788 | 13195 ft | 161 kts | 36° |
| 2026-05-04 12:22 | 55.33450 | -118.60360 | 13197 ft | 164 kts | 37° |
| 2026-05-04 12:23 | 55.34245 | -118.58870 | 13200 ft | 165 kts | 37° |
| 2026-05-04 12:23 | 55.35024 | -118.57412 | 13199 ft | 166 kts | 37° |
| 2026-05-04 12:23 | 55.35816 | -118.55926 | 13198 ft | 167 kts | 37° |
| 2026-05-04 12:23 | 55.36611 | -118.54438 | 13203 ft | 167 kts | 37° |
| 2026-05-04 12:24 | 55.37405 | -118.52947 | 13205 ft | 167 kts | 37° |
| 2026-05-04 12:24 | 55.38198 | -118.51460 | 13208 ft | 167 kts | 37° |
| 2026-05-04 12:24 | 55.38992 | -118.49969 | 13207 ft | 167 kts | 37° |
| 2026-05-04 12:24 | 55.39787 | -118.48476 | 13210 ft | 167 kts | 37° |
| 2026-05-04 12:25 | 55.40581 | -118.46983 | 13213 ft | 167 kts | 37° |
| 2026-05-04 12:25 | 55.41106 | -118.45995 | 13210 ft | 167 kts | 37° |
| 2026-05-04 12:25 | 55.42167 | -118.43998 | 13214 ft | 167 kts | 37° |
| 2026-05-04 12:25 | 55.42692 | -118.43009 | 13217 ft | 167 kts | 37° |
| 2026-05-04 12:26 | 55.43488 | -118.41511 | 13216 ft | 167 kts | 37° |
| 2026-05-04 12:26 | 55.44282 | -118.40012 | 13217 ft | 167 kts | 37° |
| 2026-05-04 12:26 | 55.45074 | -118.38518 | 13216 ft | 167 kts | 37° |
| 2026-05-04 12:26 | 55.45863 | -118.37029 | 13217 ft | 167 kts | 37° |
| 2026-05-04 12:27 | 55.46656 | -118.35531 | 13218 ft | 167 kts | 37° |
| 2026-05-04 12:27 | 55.47447 | -118.34035 | 13218 ft | 167 kts | 37° |
| 2026-05-04 12:27 | 55.48239 | -118.32536 | 13217 ft | 167 kts | 37° |
| 2026-05-04 12:27 | 55.49035 | -118.31032 | 13218 ft | 168 kts | 37° |
| 2026-05-04 12:28 | 55.49832 | -118.29522 | 13220 ft | 168 kts | 37° |
| 2026-05-04 12:28 | 55.50630 | -118.28010 | 13222 ft | 169 kts | 37° |
| 2026-05-04 12:28 | 55.51428 | -118.26495 | 13223 ft | 169 kts | 37° |
| 2026-05-04 12:28 | 55.52228 | -118.24977 | 13222 ft | 168 kts | 37° |
| 2026-05-04 12:29 | 55.53025 | -118.23464 | 13220 ft | 168 kts | 37° |
| 2026-05-04 12:29 | 55.53821 | -118.21952 | 13222 ft | 168 kts | 37° |
| 2026-05-04 12:29 | 55.54614 | -118.20445 | 13223 ft | 167 kts | 37° |
| 2026-05-04 12:29 | 55.55404 | -118.18942 | 13220 ft | 167 kts | 37° |
| 2026-05-04 12:30 | 55.56196 | -118.17434 | 13223 ft | 167 kts | 37° |
| 2026-05-04 12:30 | 55.56986 | -118.15929 | 13225 ft | 167 kts | 37° |
| 2026-05-04 12:30 | 55.57777 | -118.14421 | 13224 ft | 167 kts | 37° |
| 2026-05-04 12:30 | 55.58567 | -118.12915 | 13224 ft | 167 kts | 37° |
| 2026-05-04 12:31 | 55.59358 | -118.11405 | 13224 ft | 167 kts | 37° |
| 2026-05-04 12:31 | 55.60149 | -118.09896 | 13227 ft | 167 kts | 37° |
| 2026-05-04 12:31 | 55.60940 | -118.08384 | 13211 ft | 167 kts | 37° |
| 2026-05-04 12:31 | 55.61730 | -118.06874 | 13222 ft | 167 kts | 37° |
| 2026-05-04 12:32 | 55.62521 | -118.05361 | 13224 ft | 167 kts | 37° |
| 2026-05-04 12:32 | 55.64090 | -118.02355 | 13221 ft | 167 kts | 37° |
| 2026-05-04 12:32 | 55.64878 | -118.00845 | 13224 ft | 167 kts | 37° |
| 2026-05-04 12:33 | 55.65668 | -117.99329 | 13227 ft | 167 kts | 37° |
| 2026-05-04 12:33 | 55.66456 | -117.97816 | 13226 ft | 167 kts | 37° |
| 2026-05-04 12:33 | 55.67245 | -117.96302 | 13224 ft | 167 kts | 37° |
| 2026-05-04 12:33 | 55.68032 | -117.94789 | 13227 ft | 167 kts | 37° |
| 2026-05-04 12:34 | 55.68819 | -117.93276 | 13232 ft | 167 kts | 37° |
| 2026-05-04 12:34 | 55.69605 | -117.91763 | 13227 ft | 167 kts | 37° |
| 2026-05-04 12:34 | 55.70391 | -117.90250 | 13230 ft | 167 kts | 37° |
| 2026-05-04 12:34 | 55.71179 | -117.88732 | 13229 ft | 167 kts | 37° |
| 2026-05-04 12:35 | 55.71967 | -117.87213 | 13221 ft | 167 kts | 37° |
| 2026-05-04 12:35 | 55.72753 | -117.85695 | 13233 ft | 167 kts | 37° |
| 2026-05-04 12:35 | 55.73539 | -117.84176 | 13227 ft | 167 kts | 37° |
| 2026-05-04 12:35 | 55.74327 | -117.82656 | 13226 ft | 167 kts | 37° |
| 2026-05-04 12:36 | 55.75113 | -117.81137 | 13230 ft | 167 kts | 37° |
| 2026-05-04 12:36 | 55.75898 | -117.79619 | 13226 ft | 167 kts | 37° |
| 2026-05-04 12:36 | 55.76684 | -117.78097 | 13230 ft | 167 kts | 37° |
| 2026-05-04 12:36 | 55.77468 | -117.76578 | 13224 ft | 167 kts | 37° |
| 2026-05-04 12:37 | 55.78251 | -117.75062 | 13232 ft | 166 kts | 37° |
| 2026-05-04 12:37 | 55.79035 | -117.73542 | 13225 ft | 167 kts | 37° |
| 2026-05-04 12:37 | 55.79818 | -117.72022 | 13229 ft | 167 kts | 37° |
| 2026-05-04 12:37 | 55.80590 | -117.70523 | 13225 ft | 166 kts | 37° |
| 2026-05-04 12:38 | 55.81370 | -117.69006 | 13227 ft | 166 kts | 37° |
| 2026-05-04 12:38 | 55.82152 | -117.67487 | 13229 ft | 166 kts | 37° |
| 2026-05-04 12:38 | 55.82936 | -117.65963 | 13229 ft | 166 kts | 37° |
| 2026-05-04 12:38 | 55.83715 | -117.64445 | 13226 ft | 166 kts | 37° |
| 2026-05-04 12:39 | 55.84497 | -117.62923 | 13230 ft | 166 kts | 37° |
| 2026-05-04 12:39 | 55.85276 | -117.61403 | 13231 ft | 166 kts | 37° |
| 2026-05-04 12:39 | 55.86056 | -117.59883 | 13230 ft | 166 kts | 37° |
| 2026-05-04 12:39 | 55.86834 | -117.58363 | 13221 ft | 166 kts | 37° |
| 2026-05-04 12:40 | 55.87612 | -117.56845 | 13221 ft | 166 kts | 37° |
| 2026-05-04 12:40 | 55.88379 | -117.55346 | 13226 ft | 166 kts | 37° |
| 2026-05-04 12:40 | 55.89165 | -117.53809 | 13227 ft | 166 kts | 37° |
| 2026-05-04 12:40 | 55.89941 | -117.52290 | 13219 ft | 165 kts | 37° |
| 2026-05-04 12:41 | 55.90705 | -117.50795 | 13222 ft | 166 kts | 37° |
| 2026-05-04 12:41 | 55.91481 | -117.49276 | 13221 ft | 166 kts | 37° |
| 2026-05-04 12:41 | 55.92259 | -117.47749 | 13216 ft | 166 kts | 37° |
| 2026-05-04 12:41 | 55.93036 | -117.46225 | 13219 ft | 166 kts | 36° |
| 2026-05-04 12:42 | 55.93811 | -117.44704 | 13213 ft | 165 kts | 36° |
| 2026-05-04 12:42 | 55.94584 | -117.43187 | 13214 ft | 165 kts | 36° |
| 2026-05-04 12:42 | 55.95356 | -117.41669 | 13213 ft | 165 kts | 36° |
| 2026-05-04 12:42 | 55.96127 | -117.40152 | 13214 ft | 165 kts | 36° |
| 2026-05-04 12:43 | 55.96898 | -117.38635 | 13213 ft | 165 kts | 36° |
| 2026-05-04 12:43 | 55.97668 | -117.37119 | 13212 ft | 165 kts | 36° |
| 2026-05-04 12:43 | 55.98438 | -117.35601 | 13211 ft | 165 kts | 36° |
| 2026-05-04 12:43 | 55.99207 | -117.34086 | 13209 ft | 165 kts | 36° |
| 2026-05-04 12:44 | 55.99978 | -117.32565 | 13208 ft | 165 kts | 36° |
| 2026-05-04 12:44 | 56.00746 | -117.31048 | 13209 ft | 165 kts | 37° |
| 2026-05-04 12:44 | 56.01515 | -117.29528 | 13208 ft | 165 kts | 36° |
| 2026-05-04 12:44 | 56.02282 | -117.28012 | 13209 ft | 165 kts | 36° |
| 2026-05-04 12:45 | 56.03054 | -117.26486 | 13206 ft | 165 kts | 37° |
| 2026-05-04 12:45 | 56.03821 | -117.24967 | 13206 ft | 165 kts | 36° |
| 2026-05-04 12:45 | 56.04578 | -117.23467 | 13207 ft | 164 kts | 36° |
| 2026-05-04 12:45 | 56.05344 | -117.21950 | 13209 ft | 164 kts | 36° |
| 2026-05-04 12:46 | 56.06110 | -117.20430 | 13208 ft | 164 kts | 36° |
| 2026-05-04 12:46 | 56.06876 | -117.18912 | 13211 ft | 165 kts | 36° |
| 2026-05-04 12:46 | 56.07643 | -117.17389 | 13206 ft | 165 kts | 36° |
| 2026-05-04 12:46 | 56.08408 | -117.15867 | 13204 ft | 164 kts | 36° |
| 2026-05-04 12:47 | 56.09172 | -117.14348 | 13203 ft | 164 kts | 36° |
| 2026-05-04 12:47 | 56.09933 | -117.12834 | 13207 ft | 164 kts | 36° |
| 2026-05-04 12:47 | 56.10696 | -117.11317 | 13207 ft | 164 kts | 36° |
| 2026-05-04 12:47 | 56.11457 | -117.09800 | 13208 ft | 164 kts | 36° |
| 2026-05-04 12:48 | 56.12220 | -117.08279 | 13209 ft | 164 kts | 36° |
| 2026-05-04 12:48 | 56.12985 | -117.06752 | 13209 ft | 164 kts | 36° |
| 2026-05-04 12:48 | 56.13747 | -117.05232 | 13212 ft | 164 kts | 36° |
| 2026-05-04 12:48 | 56.14510 | -117.03709 | 13210 ft | 164 kts | 36° |
| 2026-05-04 12:49 | 56.15273 | -117.02185 | 13211 ft | 165 kts | 36° |
| 2026-05-04 12:49 | 56.16037 | -117.00656 | 13213 ft | 164 kts | 36° |
| 2026-05-04 12:49 | 56.16801 | -116.99128 | 13215 ft | 164 kts | 36° |
| 2026-05-04 12:49 | 56.17560 | -116.97605 | 13217 ft | 164 kts | 36° |
| 2026-05-04 12:50 | 56.18322 | -116.96082 | 13214 ft | 164 kts | 36° |
| 2026-05-04 12:50 | 56.19083 | -116.94557 | 13216 ft | 164 kts | 36° |
| 2026-05-04 12:50 | 56.19844 | -116.93028 | 13219 ft | 164 kts | 36° |
| 2026-05-04 12:50 | 56.20604 | -116.91502 | 13218 ft | 164 kts | 36° |
| 2026-05-04 12:51 | 56.21364 | -116.89975 | 13219 ft | 164 kts | 36° |
| 2026-05-04 12:51 | 56.22126 | -116.88444 | 13221 ft | 164 kts | 36° |
| 2026-05-04 12:51 | 56.22888 | -116.86911 | 13219 ft | 164 kts | 37° |
| 2026-05-04 12:51 | 56.23649 | -116.85380 | 13221 ft | 164 kts | 36° |
| 2026-05-04 12:52 | 56.24410 | -116.83847 | 13228 ft | 164 kts | 36° |
| 2026-05-04 12:52 | 56.25170 | -116.82316 | 13223 ft | 164 kts | 36° |
| 2026-05-04 12:52 | 56.25920 | -116.80805 | 13227 ft | 164 kts | 36° |
| 2026-05-04 12:52 | 56.26689 | -116.79252 | 13225 ft | 164 kts | 36° |
| 2026-05-04 12:53 | 56.27447 | -116.77721 | 13223 ft | 164 kts | 36° |
| 2026-05-04 12:53 | 56.28205 | -116.76189 | 13226 ft | 164 kts | 37° |
| 2026-05-04 12:53 | 56.28962 | -116.74659 | 13222 ft | 164 kts | 36° |
| 2026-05-04 12:53 | 56.29721 | -116.73124 | 13223 ft | 164 kts | 37° |
| 2026-05-04 12:54 | 56.30480 | -116.71587 | 13226 ft | 164 kts | 37° |
| 2026-05-04 12:54 | 56.31238 | -116.70053 | 13222 ft | 164 kts | 37° |
| 2026-05-04 12:54 | 56.31993 | -116.68520 | 13222 ft | 163 kts | 37° |
| 2026-05-04 12:54 | 56.32747 | -116.66990 | 13222 ft | 163 kts | 37° |
| 2026-05-04 12:55 | 56.33491 | -116.65480 | 13225 ft | 163 kts | 37° |
| 2026-05-04 12:55 | 56.34245 | -116.63950 | 13225 ft | 163 kts | 37° |
| 2026-05-04 12:55 | 56.34997 | -116.62423 | 13225 ft | 163 kts | 37° |
| 2026-05-04 12:55 | 56.35749 | -116.60893 | 13230 ft | 163 kts | 37° |
| 2026-05-04 12:56 | 56.36502 | -116.59361 | 13226 ft | 163 kts | 37° |
| 2026-05-04 12:56 | 56.37254 | -116.57831 | 13228 ft | 163 kts | 37° |
| 2026-05-04 12:56 | 56.38006 | -116.56298 | 13227 ft | 163 kts | 37° |
| 2026-05-04 12:56 | 56.38758 | -116.54764 | 13222 ft | 163 kts | 37° |
| 2026-05-04 12:57 | 56.39511 | -116.53227 | 13222 ft | 163 kts | 37° |
| 2026-05-04 12:57 | 56.40264 | -116.51692 | 13228 ft | 163 kts | 37° |
| 2026-05-04 12:57 | 56.41017 | -116.50152 | 13227 ft | 164 kts | 37° |
| 2026-05-04 12:57 | 56.41770 | -116.48613 | 13225 ft | 163 kts | 37° |
| 2026-05-04 12:58 | 56.42522 | -116.47076 | 13224 ft | 163 kts | 37° |
| 2026-05-04 12:58 | 56.43272 | -116.45541 | 13225 ft | 163 kts | 37° |
| 2026-05-04 12:58 | 56.44022 | -116.44005 | 13232 ft | 163 kts | 37° |
| 2026-05-04 12:58 | 56.44774 | -116.42464 | 13229 ft | 163 kts | 37° |
| 2026-05-04 12:59 | 56.45525 | -116.40923 | 13230 ft | 163 kts | 37° |
| 2026-05-04 12:59 | 56.46273 | -116.39387 | 13228 ft | 163 kts | 37° |
| 2026-05-04 12:59 | 56.47020 | -116.37854 | 13232 ft | 163 kts | 37° |
| 2026-05-04 12:59 | 56.47759 | -116.36340 | 13229 ft | 163 kts | 37° |
| 2026-05-04 13:00 | 56.48508 | -116.34798 | 13229 ft | 163 kts | 37° |
| 2026-05-04 13:00 | 56.49254 | -116.33259 | 13227 ft | 163 kts | 37° |
| 2026-05-04 13:00 | 56.50002 | -116.31719 | 13231 ft | 163 kts | 37° |
| 2026-05-04 13:00 | 56.50749 | -116.30182 | 13222 ft | 162 kts | 37° |
| 2026-05-04 13:01 | 56.51493 | -116.28647 | 13226 ft | 162 kts | 37° |
| 2026-05-04 13:01 | 56.52238 | -116.27112 | 13231 ft | 162 kts | 37° |
| 2026-05-04 13:01 | 56.52982 | -116.25578 | 13224 ft | 162 kts | 37° |
| 2026-05-04 13:01 | 56.53726 | -116.24040 | 13221 ft | 162 kts | 37° |
| 2026-05-04 13:02 | 56.54469 | -116.22504 | 13226 ft | 162 kts | 37° |
| 2026-05-04 13:02 | 56.55212 | -116.20968 | 13223 ft | 162 kts | 37° |
| 2026-05-04 13:02 | 56.55952 | -116.19436 | 13232 ft | 162 kts | 37° |
| 2026-05-04 13:02 | 56.56695 | -116.17901 | 13229 ft | 162 kts | 37° |
| 2026-05-04 13:03 | 56.57436 | -116.16362 | 13230 ft | 162 kts | 37° |
| 2026-05-04 13:03 | 56.58177 | -116.14825 | 13232 ft | 162 kts | 37° |
| 2026-05-04 13:03 | 56.58917 | -116.13291 | 13227 ft | 161 kts | 37° |
| 2026-05-04 13:03 | 56.59656 | -116.11757 | 13234 ft | 161 kts | 37° |
| 2026-05-04 13:04 | 56.60397 | -116.10218 | 13230 ft | 162 kts | 37° |
| 2026-05-04 13:04 | 56.61127 | -116.08700 | 13231 ft | 162 kts | 37° |
| 2026-05-04 13:04 | 56.61867 | -116.07161 | 13230 ft | 161 kts | 37° |
| 2026-05-04 13:04 | 56.62605 | -116.05626 | 13232 ft | 161 kts | 37° |
| 2026-05-04 13:05 | 56.63343 | -116.04088 | 13225 ft | 162 kts | 37° |
| 2026-05-04 13:05 | 56.64084 | -116.02544 | 13225 ft | 162 kts | 38° |
| 2026-05-04 13:05 | 56.64823 | -116.00999 | 13230 ft | 162 kts | 38° |
| 2026-05-04 13:05 | 56.65562 | -115.99461 | 13231 ft | 162 kts | 38° |
| 2026-05-04 13:06 | 56.66298 | -115.97921 | 13234 ft | 161 kts | 37° |
| 2026-05-04 13:06 | 56.67035 | -115.96383 | 13229 ft | 162 kts | 37° |
| 2026-05-04 13:06 | 56.67773 | -115.94839 | 13229 ft | 161 kts | 38° |
| 2026-05-04 13:06 | 56.68508 | -115.93301 | 13230 ft | 161 kts | 38° |
| 2026-05-04 13:07 | 56.69241 | -115.91767 | 13230 ft | 161 kts | 37° |
| 2026-05-04 13:07 | 56.69978 | -115.90229 | 13232 ft | 160 kts | 36° |
| 2026-05-04 13:07 | 56.70752 | -115.88790 | 13233 ft | 159 kts | 33° |
| 2026-05-04 13:07 | 56.71542 | -115.87379 | 13230 ft | 159 kts | 33° |
| 2026-05-04 13:08 | 56.72330 | -115.85976 | 13233 ft | 159 kts | 33° |
| 2026-05-04 13:08 | 56.73119 | -115.84566 | 13231 ft | 158 kts | 33° |
| 2026-05-04 13:08 | 56.73894 | -115.83183 | 13232 ft | 158 kts | 33° |
| 2026-05-04 13:08 | 56.74678 | -115.81782 | 13228 ft | 158 kts | 33° |
| 2026-05-04 13:09 | 56.75462 | -115.80378 | 13230 ft | 158 kts | 33° |
| 2026-05-04 13:09 | 56.76250 | -115.78972 | 13227 ft | 158 kts | 33° |
| 2026-05-04 13:09 | 56.77038 | -115.77569 | 13230 ft | 159 kts | 33° |
| 2026-05-04 13:09 | 56.77825 | -115.76164 | 13230 ft | 158 kts | 33° |
| 2026-05-04 13:10 | 56.78613 | -115.74757 | 13230 ft | 158 kts | 33° |
| 2026-05-04 13:10 | 56.79398 | -115.73354 | 13231 ft | 158 kts | 33° |
| 2026-05-04 13:10 | 56.80153 | -115.71864 | 13232 ft | 163 kts | 42° |
| 2026-05-04 13:10 | 56.80764 | -115.70085 | 13234 ft | 167 kts | 49° |
| 2026-05-04 13:11 | 56.81319 | -115.68207 | 13234 ft | 168 kts | 50° |
| 2026-05-04 13:11 | 56.81861 | -115.66355 | 13044 ft | 166 kts | 50° |
| 2026-05-04 13:11 | 56.82414 | -115.64494 | 12775 ft | 166 kts | 50° |
| 2026-05-04 13:11 | 56.82964 | -115.62651 | 12498 ft | 164 kts | 50° |
| 2026-05-04 13:12 | 56.83510 | -115.60827 | 12088 ft | 164 kts | 50° |
| 2026-05-04 13:12 | 56.84061 | -115.59017 | 11704 ft | 162 kts | 49° |
| 2026-05-04 13:12 | 56.84613 | -115.57224 | 11343 ft | 161 kts | 50° |
| 2026-05-04 13:12 | 56.85164 | -115.55450 | 10974 ft | 160 kts | 49° |
| 2026-05-04 13:13 | 56.85528 | -115.54282 | 10742 ft | 159 kts | 50° |
| 2026-05-04 13:13 | 56.86075 | -115.52531 | 10404 ft | 158 kts | 49° |
| 2026-05-04 13:13 | 56.86622 | -115.50794 | 10074 ft | 157 kts | 49° |
| 2026-05-04 13:13 | 56.87169 | -115.49072 | 9719 ft | 156 kts | 49° |
| 2026-05-04 13:14 | 56.87890 | -115.46806 | 9275 ft | 155 kts | 49° |
| 2026-05-04 13:14 | 56.88427 | -115.45112 | 8953 ft | 153 kts | 49° |
| 2026-05-04 13:14 | 56.88790 | -115.43976 | 8741 ft | 153 kts | 49° |
| 2026-05-04 13:14 | 56.89324 | -115.42299 | 8431 ft | 152 kts | 49° |
| 2026-05-04 13:15 | 56.89854 | -115.40627 | 8133 ft | 152 kts | 49° |
| 2026-05-04 13:15 | 56.90381 | -115.38958 | 7844 ft | 151 kts | 49° |
| 2026-05-04 13:15 | 56.90905 | -115.37306 | 7572 ft | 150 kts | 49° |
| 2026-05-04 13:15 | 56.91425 | -115.35658 | 7298 ft | 149 kts | 49° |
| 2026-05-04 13:16 | 56.91943 | -115.34021 | 7038 ft | 148 kts | 49° |
| 2026-05-04 13:16 | 56.92460 | -115.32394 | 6777 ft | 147 kts | 49° |
| 2026-05-04 13:16 | 56.92967 | -115.30799 | 6514 ft | 147 kts | 49° |
| 2026-05-04 13:16 | 56.93490 | -115.29171 | 6224 ft | 147 kts | 49° |
| 2026-05-04 13:17 | 56.94004 | -115.27555 | 5954 ft | 147 kts | 52° |
| 2026-05-04 13:17 | 56.94463 | -115.25876 | 5622 ft | 149 kts | 55° |
| 2026-05-04 13:17 | 56.94904 | -115.24146 | 5406 ft | 149 kts | 56° |
| 2026-05-04 13:17 | 56.95347 | -115.22435 | 5203 ft | 148 kts | 56° |
| 2026-05-04 13:18 | 56.95790 | -115.20729 | 5002 ft | 148 kts | 57° |
| 2026-05-04 13:18 | 56.96239 | -115.19031 | 4807 ft | 148 kts | 56° |
| 2026-05-04 13:18 | 56.96689 | -115.17343 | 4623 ft | 147 kts | 56° |
| 2026-05-04 13:18 | 56.97137 | -115.15680 | 4437 ft | 148 kts | 56° |
| 2026-05-04 13:19 | 56.97605 | -115.13979 | 4257 ft | 147 kts | 56° |
| 2026-05-04 13:19 | 56.98061 | -115.12337 | 4083 ft | 147 kts | 56° |
| 2026-05-04 13:19 | 56.98530 | -115.10672 | 3962 ft | 147 kts | 56° |
| 2026-05-04 13:19 | 56.99009 | -115.08995 | 3789 ft | 146 kts | 56° |
| 2026-05-04 13:20 | 56.99483 | -115.07376 | 3636 ft | 146 kts | 56° |
| 2026-05-04 13:20 | 56.99968 | -115.05731 | 3479 ft | 146 kts | 56° |
| 2026-05-04 13:20 | 57.00460 | -115.04092 | 3327 ft | 147 kts | 56° |
| 2026-05-04 13:20 | 57.00956 | -115.02458 | 3176 ft | 147 kts | 56° |
| 2026-05-04 13:21 | 57.01456 | -115.00827 | 3047 ft | 147 kts | 56° |
| 2026-05-04 13:21 | 57.01966 | -114.99199 | 2911 ft | 147 kts | 57° |
| 2026-05-04 13:21 | 57.02507 | -114.97626 | 2830 ft | 142 kts | 41° |
| 2026-05-04 13:21 | 57.03372 | -114.97107 | 2816 ft | 133 kts | 348° |
| 2026-05-04 13:22 | 57.04149 | -114.97976 | 2819 ft | 131 kts | 323° |
| 2026-05-04 13:22 | 57.04860 | -114.98952 | 2818 ft | 125 kts | 328° |
| 2026-05-04 13:22 | 57.05608 | -114.99705 | 2815 ft | 120 kts | 337° |
| 2026-05-04 13:22 | 57.06349 | -115.00338 | 2816 ft | 115 kts | 336° |
| 2026-05-04 13:23 | 57.07058 | -115.00956 | 2827 ft | 107 kts | 336° |
| 2026-05-04 13:23 | 57.07732 | -115.01417 | 2763 ft | 101 kts | 343° |
| 2026-05-04 13:23 | 57.08401 | -115.01828 | 2659 ft | 103 kts | 340° |
| 2026-05-04 13:23 | 57.09058 | -115.02354 | 2549 ft | 104 kts | 336° |
| 2026-05-04 13:24 | 57.09701 | -115.02953 | 2424 ft | 102 kts | 332° |
| 2026-05-04 13:24 | 57.10227 | -115.03493 | 2303 ft | 81 kts | 332° |
| 2026-05-04 13:24 | 57.10734 | -115.04011 | 2145 ft | 84 kts | 330° |
| 2026-05-04 13:25 | 57.11754 | -115.05040 | 1998 ft | 85 kts | 332° |
| 2026-05-04 13:25 | 57.12273 | -115.05590 | 1882 ft | 88 kts | 329° |
| 2026-05-04 13:25 | 57.12832 | -115.06120 | 1717 ft | 90 kts | 330° |
| 2026-05-04 13:25 | 57.13372 | -115.06702 | 1590 ft | 90 kts | 330° |
| 2026-05-04 13:26 | 57.13881 | -115.07220 | 1556 ft | 72 kts | 330° |
| 2026-05-04 13:26 | 57.14173 | -115.07518 | 1553 ft | 26 kts | 334° |
| 2026-05-04 13:26 | 57.14252 | -115.07598 | 1553 ft | 5 kts | 215° |
| 2026-05-04 13:26 | 57.14172 | -115.07522 | 1553 ft | 19 kts | 155° |
| 2026-05-04 13:27 | 57.14049 | -115.07397 | 1555 ft | 19 kts | 150° |
| 2026-05-04 13:27 | 57.13939 | -115.07279 | 1556 ft | 20 kts | 153° |
| 2026-05-04 13:27 | 57.13804 | -115.07148 | 1554 ft | 21 kts | 149° |
| 2026-05-04 13:27 | 57.13711 | -115.07066 | 1553 ft | 9 kts | 191° |
| 2026-05-04 13:28 | 57.13667 | -115.07158 | 1553 ft | 10 kts | 239° |
| 2026-05-04 13:28 | 57.13639 | -115.07231 | 1553 ft | 4 kts | 236° |
| 2026-05-04 13:28 | 57.13638 | -115.07260 | 1553 ft | 0 kts | 286° |
| 2026-05-04 16:11 | 57.13629 | -115.07202 | 1553 ft | 2 kts | 286° |
| 2026-05-04 16:11 | 57.13627 | -115.07193 | 1553 ft | 0 kts | 286° |
| 2026-05-04 16:12 | 57.13590 | -115.07177 | 1553 ft | 12 kts | 133° |
| 2026-05-04 16:12 | 57.13596 | -115.06933 | 1551 ft | 27 kts | 333° |
| 2026-05-04 16:13 | 57.14628 | -115.08089 | 2273 ft | 101 kts | 331° |
| 2026-05-04 16:13 | 57.15733 | -115.07541 | 3798 ft | 107 kts | 55° |
| 2026-05-04 16:14 | 57.15879 | -115.04868 | 5219 ft | 107 kts | 72° |
| 2026-05-04 16:14 | 57.16362 | -115.02342 | 6335 ft | 97 kts | 30° |
| 2026-05-04 16:15 | 57.17693 | -114.99642 | 7982 ft | 93 kts | 33° |
| 2026-05-04 16:16 | 57.18522 | -114.97821 | 8989 ft | 92 kts | 33° |
| 2026-05-04 16:16 | 57.19735 | -114.95107 | 10407 ft | 92 kts | 31° |
| 2026-05-04 16:17 | 57.20548 | -114.93271 | 11256 ft | 93 kts | 32° |
| 2026-05-04 16:18 | 57.21788 | -114.90472 | 12491 ft | 95 kts | 32° |
| 2026-05-04 16:18 | 57.22206 | -114.89530 | 12896 ft | 95 kts | 32° |
| 2026-05-04 16:19 | 57.23890 | -114.85691 | 13194 ft | 148 kts | 38° |
| 2026-05-04 16:19 | 57.24913 | -114.83373 | 13195 ft | 161 kts | 39° |
| 2026-05-04 16:20 | 57.26984 | -114.78663 | 13229 ft | 165 kts | 39° |
| 2026-05-04 16:20 | 57.28443 | -114.75341 | 13226 ft | 166 kts | 39° |
| 2026-05-04 16:21 | 57.30635 | -114.70359 | 13234 ft | 166 kts | 39° |
| 2026-05-04 16:22 | 57.32092 | -114.67035 | 13234 ft | 166 kts | 39° |
| 2026-05-04 16:22 | 57.34284 | -114.62029 | 13227 ft | 167 kts | 39° |
| 2026-05-04 16:23 | 57.36480 | -114.57000 | 13228 ft | 167 kts | 39° |
| 2026-05-04 16:24 | 57.39384 | -114.50342 | 13233 ft | 167 kts | 38° |
| 2026-05-04 16:25 | 57.40840 | -114.46993 | 13232 ft | 167 kts | 39° |
| 2026-05-04 16:26 | 57.43753 | -114.40279 | 13235 ft | 167 kts | 39° |
| 2026-05-04 16:26 | 57.45946 | -114.35215 | 13234 ft | 168 kts | 38° |
| 2026-05-04 16:27 | 57.47409 | -114.31828 | 13232 ft | 168 kts | 38° |
| 2026-05-04 16:28 | 57.49597 | -114.26758 | 13237 ft | 168 kts | 38° |
| 2026-05-04 16:28 | 57.51779 | -114.21688 | 13240 ft | 168 kts | 38° |
| 2026-05-04 16:29 | 57.54691 | -114.14905 | 13233 ft | 168 kts | 38° |
| 2026-05-04 16:30 | 57.56863 | -114.09836 | 13237 ft | 168 kts | 38° |
| 2026-05-04 16:31 | 57.58319 | -114.06430 | 13242 ft | 168 kts | 38° |
| 2026-05-04 16:31 | 57.60505 | -114.01310 | 13239 ft | 168 kts | 38° |
| 2026-05-04 16:32 | 57.62692 | -113.96175 | 13237 ft | 169 kts | 38° |
| 2026-05-04 16:33 | 57.64149 | -113.92747 | 13242 ft | 168 kts | 38° |
| 2026-05-04 16:33 | 57.65606 | -113.89314 | 13237 ft | 169 kts | 38° |
| 2026-05-04 16:34 | 57.66818 | -113.86457 | 13241 ft | 169 kts | 38° |
| 2026-05-04 16:34 | 57.67546 | -113.84738 | 13241 ft | 169 kts | 38° |
| 2026-05-04 16:35 | 57.69971 | -113.79005 | 13247 ft | 169 kts | 38° |
| 2026-05-04 16:35 | 57.71921 | -113.74383 | 13243 ft | 170 kts | 38° |
| 2026-05-04 16:36 | 57.72651 | -113.72649 | 13241 ft | 170 kts | 37° |
| 2026-05-04 16:36 | 57.74113 | -113.69178 | 13246 ft | 170 kts | 37° |
| 2026-05-04 16:37 | 57.75578 | -113.65691 | 13241 ft | 171 kts | 37° |
| 2026-05-04 16:37 | 57.76311 | -113.63945 | 13245 ft | 171 kts | 37° |
| 2026-05-04 16:37 | 57.77767 | -113.60475 | 13244 ft | 171 kts | 37° |
| 2026-05-04 16:38 | 57.79231 | -113.56979 | 13247 ft | 170 kts | 37° |
| 2026-05-04 16:39 | 57.81427 | -113.51726 | 13244 ft | 171 kts | 37° |
| 2026-05-04 16:39 | 57.82891 | -113.48217 | 13251 ft | 171 kts | 37° |
| 2026-05-04 16:40 | 57.84356 | -113.44700 | 13249 ft | 171 kts | 38° |
| 2026-05-04 16:40 | 57.85813 | -113.41197 | 13252 ft | 171 kts | 37° |
| 2026-05-04 16:41 | 57.87279 | -113.37671 | 13250 ft | 171 kts | 38° |
| 2026-05-04 16:41 | 57.89479 | -113.32364 | 13249 ft | 172 kts | 38° |
| 2026-05-04 16:42 | 57.91677 | -113.27052 | 13254 ft | 172 kts | 38° |
| 2026-05-04 16:43 | 57.93142 | -113.23506 | 13251 ft | 172 kts | 38° |
| 2026-05-04 16:43 | 57.94608 | -113.19949 | 13252 ft | 172 kts | 38° |
| 2026-05-04 16:43 | 57.95341 | -113.18170 | 13252 ft | 172 kts | 38° |
| 2026-05-04 16:44 | 57.98275 | -113.11034 | 13252 ft | 172 kts | 38° |
| 2026-05-04 16:45 | 57.99742 | -113.07456 | 13257 ft | 172 kts | 38° |
| 2026-05-04 16:46 | 58.01943 | -113.02080 | 13255 ft | 173 kts | 38° |
| 2026-05-04 16:46 | 58.03412 | -112.98485 | 13262 ft | 173 kts | 38° |
| 2026-05-04 16:47 | 58.04872 | -112.94907 | 13256 ft | 173 kts | 38° |
| 2026-05-04 16:47 | 58.06342 | -112.91301 | 13253 ft | 173 kts | 38° |
| 2026-05-04 16:48 | 58.08547 | -112.85877 | 13254 ft | 174 kts | 39° |
| 2026-05-04 16:48 | 58.09281 | -112.84069 | 13257 ft | 174 kts | 39° |
| 2026-05-04 16:49 | 58.10755 | -112.80435 | 13257 ft | 174 kts | 39° |
| 2026-05-04 16:49 | 58.12231 | -112.76790 | 13258 ft | 175 kts | 39° |
| 2026-05-04 16:50 | 58.13707 | -112.73137 | 13255 ft | 174 kts | 39° |
| 2026-05-04 16:50 | 58.15177 | -112.69497 | 13257 ft | 174 kts | 39° |
| 2026-05-04 16:51 | 58.16650 | -112.65844 | 13256 ft | 175 kts | 39° |
| 2026-05-04 16:51 | 58.17391 | -112.64003 | 13248 ft | 175 kts | 40° |
| 2026-05-04 16:51 | 58.18861 | -112.60346 | 13253 ft | 174 kts | 40° |
| 2026-05-04 16:52 | 58.20332 | -112.56686 | 13255 ft | 175 kts | 40° |
| 2026-05-04 16:52 | 58.21067 | -112.54851 | 13255 ft | 175 kts | 40° |
| 2026-05-04 16:53 | 58.22539 | -112.51178 | 13251 ft | 175 kts | 40° |
| 2026-05-04 16:53 | 58.24749 | -112.45650 | 13253 ft | 175 kts | 40° |
| 2026-05-04 16:54 | 58.25474 | -112.43832 | 13253 ft | 175 kts | 41° |
| 2026-05-04 16:55 | 58.28408 | -112.36470 | 13253 ft | 175 kts | 41° |
| 2026-05-04 16:55 | 58.29875 | -112.32780 | 13258 ft | 175 kts | 41° |
| 2026-05-04 16:56 | 58.31342 | -112.29083 | 13254 ft | 175 kts | 41° |
| 2026-05-04 16:56 | 58.33543 | -112.23527 | 13252 ft | 175 kts | 42° |
| 2026-05-04 16:57 | 58.34274 | -112.21678 | 13251 ft | 175 kts | 42° |
| 2026-05-04 16:57 | 58.35736 | -112.17979 | 13259 ft | 175 kts | 42° |
| 2026-05-04 16:58 | 58.37917 | -112.12445 | 13253 ft | 175 kts | 43° |
| 2026-05-04 16:58 | 58.38648 | -112.10591 | 13256 ft | 175 kts | 43° |
| 2026-05-04 16:59 | 58.39925 | -112.06598 | 13252 ft | 186 kts | 63° |
| 2026-05-04 17:00 | 58.42645 | -111.98554 | 12518 ft | 192 kts | 45° |
| 2026-05-04 17:00 | 58.44935 | -111.92637 | 10844 ft | 181 kts | 44° |
| 2026-05-04 17:01 | 58.46387 | -111.88895 | 10008 ft | 170 kts | 44° |
| 2026-05-04 17:01 | 58.47769 | -111.85335 | 9134 ft | 165 kts | 44° |
| 2026-05-04 17:02 | 58.49110 | -111.81868 | 8400 ft | 159 kts | 45° |
| 2026-05-04 17:02 | 58.50408 | -111.78512 | 7730 ft | 157 kts | 45° |
| 2026-05-04 17:03 | 58.51056 | -111.76834 | 7396 ft | 156 kts | 46° |
| 2026-05-04 17:03 | 58.51701 | -111.75159 | 7069 ft | 156 kts | 46° |
| 2026-05-04 17:03 | 58.52980 | -111.71839 | 6498 ft | 151 kts | 46° |
| 2026-05-04 17:04 | 58.54179 | -111.68730 | 6175 ft | 147 kts | 46° |
| 2026-05-04 17:04 | 58.55436 | -111.65458 | 5777 ft | 156 kts | 47° |
| 2026-05-04 17:05 | 58.56726 | -111.62090 | 5347 ft | 157 kts | 47° |
| 2026-05-04 17:05 | 58.58020 | -111.58712 | 4925 ft | 157 kts | 47° |
| 2026-05-04 17:06 | 58.59310 | -111.55339 | 4501 ft | 157 kts | 47° |
| 2026-05-04 17:06 | 58.59951 | -111.53662 | 4286 ft | 155 kts | 47° |
| 2026-05-04 17:07 | 58.61202 | -111.50382 | 3883 ft | 149 kts | 46° |
| 2026-05-04 17:07 | 58.61605 | -111.49329 | 3752 ft | 147 kts | 46° |
| 2026-05-04 17:07 | 58.62406 | -111.47227 | 3481 ft | 144 kts | 46° |
| 2026-05-04 17:07 | 58.62995 | -111.45683 | 3290 ft | 143 kts | 45° |
| 2026-05-04 17:08 | 58.63585 | -111.44137 | 3101 ft | 143 kts | 45° |
| 2026-05-04 17:08 | 58.64755 | -111.41058 | 2716 ft | 143 kts | 45° |
| 2026-05-04 17:08 | 58.65337 | -111.39527 | 2529 ft | 142 kts | 45° |
| 2026-05-04 17:09 | 58.65921 | -111.37990 | 2333 ft | 142 kts | 46° |
| 2026-05-04 17:09 | 58.66500 | -111.36462 | 2141 ft | 141 kts | 46° |
| 2026-05-04 17:09 | 58.67053 | -111.34991 | 2096 ft | 130 kts | 46° |
| 2026-05-04 17:10 | 58.68111 | -111.32446 | 2096 ft | 112 kts | 40° |
| 2026-05-04 17:10 | 58.69460 | -111.29316 | 2101 ft | 104 kts | 40° |
| 2026-05-04 17:11 | 58.69922 | -111.28215 | 2106 ft | 107 kts | 43° |
| 2026-05-04 17:11 | 58.70387 | -111.27089 | 2108 ft | 108 kts | 42° |
| 2026-05-04 17:11 | 58.71332 | -111.24818 | 2101 ft | 109 kts | 43° |
| 2026-05-04 17:12 | 58.71803 | -111.23685 | 2099 ft | 108 kts | 43° |
| 2026-05-04 17:12 | 58.72733 | -111.21439 | 2088 ft | 107 kts | 43° |
| 2026-05-04 17:13 | 58.73990 | -111.18371 | 2080 ft | 83 kts | 39° |
| 2026-05-04 17:14 | 58.75039 | -111.15805 | 1419 ft | 81 kts | 41° |
| 2026-05-04 17:14 | 58.75410 | -111.14983 | 1182 ft | 81 kts | 40° |
| 2026-05-04 17:14 | 58.76096 | -111.13315 | 871 ft | 83 kts | 47° |
| 2026-05-04 17:15 | 58.76439 | -111.12490 | 726 ft | 70 kts | 44° |
| 2026-05-04 17:15 | 58.76727 | -111.11820 | 736 ft | 17 kts | 49° |
| 2026-05-04 17:16 | 58.76824 | -111.11511 | 741 ft | 12 kts | 92° |
| 2026-05-04 17:16 | 58.76691 | -111.11396 | 739 ft | 3 kts | 233° |
| 2026-05-04 17:17 | 58.76689 | -111.11401 | 739 ft | 0 kts | 231° |